createdAt,value
2018-07-05T00:00:15.937Z,87.43
2018-07-05T00:01:15.898Z,87.33
2018-07-05T00:02:15.902Z,88.13
2018-07-05T00:03:15.874Z,88.28
2018-07-05T00:04:15.861Z,88.23
2018-07-05T00:05:15.912Z,88.54
2018-07-05T00:06:15.868Z,88.48
2018-07-05T00:07:15.834Z,88.58
2018-07-05T00:08:15.777Z,88.78
2018-07-05T00:09:15.803Z,89.18
2018-07-05T00:10:15.796Z,89.08
2018-07-05T00:11:15.772Z,89.59
2018-07-05T00:12:15.773Z,88.98
2018-07-05T00:13:15.768Z,89.39
2018-07-05T00:14:15.751Z,89.89
2018-07-05T00:15:15.705Z,90.69
2018-07-05T00:16:15.762Z,90.39
2018-07-05T00:17:15.724Z,90.29
2018-07-05T00:18:15.664Z,90.69
2018-07-05T00:19:15.694Z,89.59
2018-07-05T00:20:15.691Z,89.59
2018-07-05T00:21:15.704Z,90.39
2018-07-05T00:22:15.665Z,90.59
2018-07-05T00:23:15.665Z,90.29
2018-07-05T00:24:15.646Z,90.39
2018-07-05T00:25:15.637Z,90.69
2018-07-05T00:26:15.603Z,89.59
2018-07-05T00:27:15.611Z,89.79
2018-07-05T00:28:15.606Z,89.59
2018-07-05T00:29:15.594Z,89.08
2018-07-05T00:30:15.577Z,88.48
2018-07-05T00:31:15.603Z,89.39
2018-07-05T00:32:15.559Z,89.18
2018-07-05T00:33:15.551Z,88.88
2018-07-05T00:34:15.493Z,88.58
2018-07-05T00:35:15.525Z,88.68
2018-07-05T00:36:15.637Z,89.18
2018-07-05T00:37:15.506Z,89.18
2018-07-05T00:38:15.494Z,89.48
2018-07-05T00:39:15.480Z,89.08
2018-07-05T00:40:15.428Z,88.78
2018-07-05T00:41:15.466Z,88.98
2018-07-05T00:42:15.474Z,89.79
2018-07-05T00:43:15.396Z,89.59
2018-07-05T00:44:15.434Z,88.98
2018-07-05T00:45:15.415Z,88.98
2018-07-05T00:46:15.406Z,89.69
2018-07-05T00:47:15.403Z,89.79
2018-07-05T00:48:15.411Z,89.28
2018-07-05T00:49:15.377Z,88.88
2018-07-05T00:50:15.364Z,89.69
2018-07-05T00:51:15.355Z,89.63
2018-07-05T00:52:15.345Z,89.69
2018-07-05T00:53:15.603Z,90.09
2018-07-05T00:54:15.322Z,89.23
2018-07-05T00:55:15.284Z,90.19
2018-07-05T00:56:15.299Z,90.13
2018-07-05T00:57:15.293Z,90.64
2018-07-05T00:58:15.233Z,90.44
2018-07-05T00:59:15.301Z,90.59
2018-07-05T01:00:15.268Z,90.23
2018-07-05T01:01:15.244Z,91.14
2018-07-05T01:02:15.230Z,90.64
2018-07-05T01:03:15.225Z,90.44
2018-07-05T01:04:15.237Z,90.64
2018-07-05T01:05:15.202Z,90.53
2018-07-05T01:06:15.196Z,91.14
2018-07-05T01:07:15.181Z,90.49
2018-07-05T01:08:15.172Z,90.64
2018-07-05T01:09:15.186Z,90.73
2018-07-05T01:10:15.147Z,91.14
2018-07-05T01:11:15.108Z,90.94
2018-07-05T01:12:15.125Z,90.64
2018-07-05T01:13:15.114Z,90.84
2018-07-05T01:14:15.138Z,90.73
2018-07-05T01:15:15.116Z,90.88
2018-07-05T01:16:15.043Z,90.33
2018-07-05T01:17:15.071Z,89.73
2018-07-05T01:18:15.064Z,89.53
2018-07-05T01:19:15.049Z,89.83
2018-07-05T01:20:15.061Z,90.23
2018-07-05T01:21:15.039Z,90.23
2018-07-05T01:22:15.019Z,89.06
2018-07-05T01:23:15.007Z,89.06
2018-07-05T01:24:15.035Z,90.44
2018-07-05T01:25:15.007Z,90.44
2018-07-05T01:26:14.977Z,90.33
2018-07-05T01:27:14.929Z,90.58
2018-07-05T01:28:14.952Z,90.53
2018-07-05T01:29:14.943Z,91.14
2018-07-05T01:30:14.971Z,90.17
2018-07-05T01:31:14.943Z,90.28
2018-07-05T01:32:14.911Z,90.33
2018-07-05T01:33:14.895Z,88.72
2018-07-05T01:34:14.887Z,88.26
2018-07-05T01:35:14.844Z,89.43
2018-07-05T01:36:14.880Z,89.26
2018-07-05T01:37:14.856Z,89.63
2018-07-05T01:38:14.842Z,90.33
2018-07-05T01:39:14.831Z,90.33
2018-07-05T01:40:14.825Z,90.64
2018-07-05T01:41:14.833Z,90.84
2018-07-05T01:42:14.800Z,90.33
2018-07-05T01:43:14.787Z,90.53
2018-07-05T01:44:14.776Z,90.53
2018-07-05T01:45:14.766Z,90.64
2018-07-05T01:46:14.755Z,89.43
2018-07-05T01:47:14.764Z,89.83
2018-07-05T01:48:14.730Z,89.43
2018-07-05T01:49:14.723Z,89.23
2018-07-05T01:50:14.716Z,89.03
2018-07-05T01:51:14.661Z,88.72
2018-07-05T01:52:14.714Z,88.82
2018-07-05T01:53:14.683Z,88.82
2018-07-05T01:54:14.624Z,89.12
2018-07-05T01:55:14.657Z,89.03
2018-07-05T01:56:14.655Z,88.78
2018-07-05T01:57:14.663Z,89.12
2018-07-05T01:58:14.587Z,88.02
2018-07-05T01:59:14.611Z,88.82
2018-07-05T02:00:14.599Z,88.52
2018-07-05T02:01:14.598Z,88.72
2018-07-05T02:02:14.604Z,88.38
2018-07-05T02:03:14.571Z,88.88
2018-07-05T02:04:14.556Z,88.22
2018-07-05T02:05:14.550Z,87.98
2018-07-05T02:06:14.540Z,88.52
2018-07-05T02:07:14.699Z,88.18
2018-07-05T02:08:14.473Z,88.62
2018-07-05T02:09:14.512Z,89.03
2018-07-05T02:10:14.454Z,88.78
2018-07-05T02:11:14.488Z,88.68
2018-07-05T02:12:14.470Z,89.53
2018-07-05T02:13:14.733Z,89.23
2018-07-05T02:14:14.454Z,89.83
2018-07-05T02:15:14.437Z,89.63
2018-07-05T02:16:14.431Z,89.03
2018-07-05T02:17:14.435Z,89.43
2018-07-05T02:18:14.408Z,89.23
2018-07-05T02:19:14.415Z,89.08
2018-07-05T02:20:14.387Z,89.53
2018-07-05T02:21:14.330Z,90.33
2018-07-05T02:22:14.369Z,89.43
2018-07-05T02:23:14.342Z,89.43
2018-07-05T02:24:14.346Z,88.82
2018-07-05T02:25:14.296Z,89.53
2018-07-05T02:26:14.320Z,89.26
2018-07-05T02:27:14.308Z,89.17
2018-07-05T02:28:14.299Z,89.26
2018-07-05T02:29:14.310Z,89.06
2018-07-05T02:30:14.285Z,88.46
2018-07-05T02:31:14.389Z,88.46
2018-07-05T02:32:14.216Z,88.36
2018-07-05T02:33:14.248Z,88.36
2018-07-05T02:34:14.308Z,88.46
2018-07-05T02:35:14.223Z,89.17
2018-07-05T02:36:14.213Z,88.66
2018-07-05T02:37:14.202Z,88.76
2018-07-05T02:38:14.196Z,88.96
2018-07-05T02:39:14.178Z,88.76
2018-07-05T02:40:14.200Z,88.26
2018-07-05T02:41:14.156Z,88.76
2018-07-05T02:42:14.107Z,88.40
2018-07-05T02:43:14.137Z,88.10
2018-07-05T02:44:14.130Z,88.30
2018-07-05T02:45:14.105Z,88.60
2018-07-05T02:46:14.103Z,89.31
2018-07-05T02:47:14.063Z,89.57
2018-07-05T02:48:14.083Z,89.77
2018-07-05T02:49:14.075Z,89.26
2018-07-05T02:50:14.134Z,89.41
2018-07-05T02:51:14.062Z,88.70
2018-07-05T02:52:14.052Z,89.61
2018-07-05T02:53:14.039Z,89.51
2018-07-05T02:54:14.016Z,89.71
2018-07-05T02:55:14.024Z,89.51
2018-07-05T02:56:13.998Z,89.61
2018-07-05T02:57:13.947Z,88.90
2018-07-05T02:58:13.981Z,89.11
2018-07-05T02:59:13.966Z,89.61
2018-07-05T03:00:13.954Z,90.72
2018-07-05T03:01:13.964Z,89.91
2018-07-05T03:02:13.933Z,90.22
2018-07-05T03:03:13.881Z,90.42
2018-07-05T03:04:13.908Z,90.52
2018-07-05T03:05:13.895Z,90.11
2018-07-05T03:06:13.959Z,90.62
2018-07-05T03:07:13.873Z,90.72
2018-07-05T03:08:13.864Z,90.82
2018-07-05T03:09:13.855Z,91.13
2018-07-05T03:10:13.842Z,90.72
2018-07-05T03:11:13.840Z,90.42
2018-07-05T03:12:13.847Z,89.55
2018-07-05T03:13:13.806Z,89.91
2018-07-05T03:14:13.751Z,89.21
2018-07-05T03:15:13.787Z,89.11
2018-07-05T03:16:13.771Z,89.71
2018-07-05T03:17:13.764Z,88.60
2018-07-05T03:18:13.774Z,88.30
2018-07-05T03:19:13.758Z,88.60
2018-07-05T03:20:13.734Z,88.70
2018-07-05T03:21:13.725Z,88.20
2018-07-05T03:22:13.713Z,88.70
2018-07-05T03:23:13.727Z,88.70
2018-07-05T03:24:13.687Z,88.54
2018-07-05T03:25:13.676Z,88.45
2018-07-05T03:26:13.667Z,89.21
2018-07-05T03:27:13.624Z,89.31
2018-07-05T03:28:13.647Z,89.61
2018-07-05T03:29:13.656Z,89.15
2018-07-05T03:30:13.626Z,89.15
2018-07-05T03:31:13.611Z,88.65
2018-07-05T03:32:13.600Z,89.35
2018-07-05T03:33:13.593Z,88.75
2018-07-05T03:34:13.600Z,88.65
2018-07-05T03:35:13.571Z,88.04
2018-07-05T03:36:13.559Z,89.05
2018-07-05T03:37:13.548Z,89.15
2018-07-05T03:38:13.535Z,88.30
2018-07-05T03:39:13.651Z,89.15
2018-07-05T03:40:13.517Z,89.05
2018-07-05T03:41:13.502Z,88.95
2018-07-05T03:42:13.486Z,88.54
2018-07-05T03:43:13.443Z,88.70
2018-07-05T03:44:13.468Z,88.95
2018-07-05T03:45:13.481Z,89.71
2018-07-05T03:46:13.481Z,88.70
2018-07-05T03:47:13.437Z,88.81
2018-07-05T03:48:13.424Z,88.26
2018-07-05T03:49:13.414Z,88.30
2018-07-05T03:50:13.549Z,88.50
2018-07-05T03:51:13.351Z,87.55
2018-07-05T03:52:13.397Z,88.46
2018-07-05T03:53:13.371Z,88.26
2018-07-05T03:54:13.356Z,88.16
2018-07-05T03:55:13.348Z,88.12
2018-07-05T03:56:13.364Z,88.22
2018-07-05T03:57:13.325Z,88.22
2018-07-05T03:58:13.323Z,87.51
2018-07-05T03:59:13.306Z,87.41
2018-07-05T04:00:13.294Z,87.21
2018-07-05T04:01:13.307Z,87.07
2018-07-05T04:02:13.332Z,86.71
2018-07-05T04:03:13.263Z,87.01
2018-07-05T04:04:13.247Z,86.77
2018-07-05T04:05:13.239Z,87.01
2018-07-05T04:06:13.245Z,86.81
2018-07-05T04:07:13.316Z,86.91
2018-07-05T04:08:13.217Z,86.61
2018-07-05T04:09:13.199Z,86.06
2018-07-05T04:10:13.185Z,86.66
2018-07-05T04:11:13.330Z,86.57
2018-07-05T04:12:13.167Z,85.66
2018-07-05T04:13:13.153Z,85.56
2018-07-05T04:14:13.148Z,85.66
2018-07-05T04:15:13.138Z,85.02
2018-07-05T04:16:13.128Z,84.91
2018-07-05T04:17:13.137Z,84.81
2018-07-05T04:18:13.096Z,85.11
2018-07-05T04:19:13.087Z,85.02
2018-07-05T04:20:13.040Z,85.22
2018-07-05T04:21:13.085Z,84.61
2018-07-05T04:22:13.057Z,85.02
2018-07-05T04:23:13.002Z,84.01
2018-07-05T04:24:13.040Z,84.77
2018-07-05T04:25:13.028Z,84.37
2018-07-05T04:26:13.107Z,84.67
2018-07-05T04:27:13.001Z,84.57
2018-07-05T04:28:12.996Z,84.17
2018-07-05T04:29:12.977Z,87.19
2018-07-05T04:30:12.964Z,83.53
2018-07-05T04:31:12.979Z,82.98
2018-07-05T04:32:12.944Z,83.29
2018-07-05T04:33:12.937Z,83.29
2018-07-05T04:34:12.966Z,83.03
2018-07-05T04:35:12.913Z,83.03
2018-07-05T04:36:13.166Z,83.53
2018-07-05T04:37:12.894Z,83.83
2018-07-05T04:38:12.880Z,83.93
2018-07-05T04:39:12.831Z,83.43
2018-07-05T04:40:12.858Z,83.93
2018-07-05T04:41:12.847Z,83.97
2018-07-05T04:42:12.912Z,83.73
2018-07-05T04:43:12.785Z,84.17
2018-07-05T04:44:12.817Z,84.23
2018-07-05T04:45:12.809Z,84.13
2018-07-05T04:46:12.809Z,83.43
2018-07-05T04:47:12.820Z,83.09
2018-07-05T04:48:12.775Z,83.29
2018-07-05T04:49:12.762Z,83.09
2018-07-05T04:50:12.754Z,82.89
2018-07-05T04:51:12.742Z,82.58
2018-07-05T04:52:12.756Z,82.78
2018-07-05T04:53:12.681Z,82.28
2018-07-05T04:54:12.707Z,82.48
2018-07-05T04:55:12.701Z,82.48
2018-07-05T04:56:12.689Z,82.58
2018-07-05T04:57:12.676Z,82.78
2018-07-05T04:58:12.688Z,83.09
2018-07-05T04:59:12.653Z,82.75
2018-07-05T05:00:12.644Z,82.75
2018-07-05T05:01:12.636Z,82.84
2018-07-05T05:02:12.646Z,82.89
2018-07-05T05:03:12.573Z,82.75
2018-07-05T05:04:12.604Z,81.90
2018-07-05T05:05:12.590Z,81.74
2018-07-05T05:06:12.602Z,81.34
2018-07-05T05:07:12.566Z,81.70
2018-07-05T05:08:57.769Z,82.04
2018-07-05T05:09:57.739Z,81.64
2018-07-05T05:10:57.726Z,81.24
2018-07-05T05:11:57.719Z,82.75
2018-07-05T05:12:57.730Z,81.84
2018-07-05T05:13:57.699Z,81.94
2018-07-05T05:14:57.705Z,81.84
2018-07-05T05:15:57.672Z,81.74
2018-07-05T05:16:57.709Z,81.50
2018-07-05T05:17:57.678Z,80.94
2018-07-05T05:18:57.691Z,81.20
2018-07-05T05:19:57.630Z,80.60
2018-07-05T05:20:57.619Z,81.40
2018-07-05T05:21:57.758Z,81.10
2018-07-05T05:22:57.770Z,80.80
2018-07-05T05:23:57.603Z,81.00
2018-07-05T05:24:57.616Z,81.20
2018-07-05T05:25:57.565Z,81.20
2018-07-05T05:26:57.570Z,80.70
2018-07-05T05:27:57.545Z,80.76
2018-07-05T05:28:57.569Z,80.16
2018-07-05T05:29:57.569Z,80.36
2018-07-05T05:30:57.536Z,80.76
2018-07-05T05:31:57.515Z,79.86
2018-07-05T05:32:57.495Z,79.62
2018-07-05T05:33:57.505Z,79.42
2018-07-05T05:34:57.494Z,79.58
2018-07-05T05:35:57.456Z,78.28
2018-07-05T05:36:57.440Z,78.58
2018-07-05T05:37:57.519Z,77.87
2018-07-05T05:38:57.455Z,77.84
2018-07-05T05:39:57.435Z,77.74
2018-07-05T05:40:57.356Z,77.84
2018-07-05T05:41:57.393Z,77.94
2018-07-05T05:42:57.385Z,77.14
2018-07-05T05:43:57.370Z,77.00
2018-07-05T05:44:57.408Z,76.60
2018-07-05T05:45:57.314Z,76.60
2018-07-05T05:46:57.337Z,77.40
2018-07-05T05:47:57.324Z,77.20
2018-07-05T05:48:57.316Z,77.40
2018-07-05T05:49:57.325Z,77.00
2018-07-05T05:50:57.290Z,77.34
2018-07-05T05:51:57.284Z,77.10
2018-07-05T05:52:57.270Z,77.40
2018-07-05T05:53:57.223Z,76.60
2018-07-05T05:54:57.207Z,76.20
2018-07-05T05:55:57.254Z,75.70
2018-07-05T05:56:57.184Z,76.50
2018-07-05T05:57:57.221Z,76.40
2018-07-05T05:58:57.205Z,76.10
2018-07-05T05:59:57.216Z,75.60
2018-07-05T06:00:57.212Z,76.06
2018-07-05T06:01:57.213Z,76.20
2018-07-05T06:02:57.160Z,75.70
2018-07-05T06:03:57.169Z,75.20
2018-07-05T06:04:57.143Z,76.60
2018-07-05T06:05:57.161Z,76.06
2018-07-05T06:06:57.121Z,75.46
2018-07-05T06:07:57.126Z,75.76
2018-07-05T06:08:57.093Z,75.56
2018-07-05T06:09:57.087Z,75.96
2018-07-05T06:10:57.098Z,75.96
2018-07-05T06:11:57.074Z,75.87
2018-07-05T06:12:57.051Z,75.16
2018-07-05T06:13:57.046Z,75.46
2018-07-05T06:14:57.031Z,74.63
2018-07-05T06:15:57.044Z,74.33
2018-07-05T06:16:57.007Z,73.69
2018-07-05T06:17:57.002Z,73.39
2018-07-05T06:18:57.006Z,73.29
2018-07-05T06:19:56.983Z,71.96
2018-07-05T06:20:57.050Z,71.22
2018-07-05T06:21:56.958Z,71.12
2018-07-05T06:22:56.945Z,70.29
2018-07-05T06:23:56.895Z,70.79
2018-07-05T06:24:56.930Z,69.49
2018-07-05T06:25:56.932Z,69.20
2018-07-05T06:26:56.903Z,68.96
2018-07-05T06:27:56.903Z,68.26
2018-07-05T06:28:56.880Z,68.56
2018-07-05T06:29:56.874Z,67.96
2018-07-05T06:30:56.880Z,67.70
2018-07-05T06:31:56.852Z,66.67
2018-07-05T06:32:56.841Z,64.72
2018-07-05T06:33:56.791Z,63.03
2018-07-05T06:34:56.820Z,59.74
2018-07-05T06:35:56.844Z,56.55
2018-07-05T06:36:56.761Z,53.20
2018-07-05T06:37:56.781Z,51.87
2018-07-05T06:38:56.773Z,49.67
2018-07-05T06:39:56.770Z,50.04
2018-07-05T06:40:56.771Z,49.30
2018-07-05T06:41:56.742Z,48.22
2018-07-05T06:42:56.737Z,48.12
2018-07-05T06:43:56.722Z,48.22
2018-07-05T06:44:56.721Z,48.12
2018-07-05T06:45:56.739Z,47.60
2018-07-05T06:46:56.691Z,46.81
2018-07-05T06:47:56.688Z,48.00
2018-07-05T06:48:56.667Z,48.29
2018-07-05T06:49:56.655Z,47.63
2018-07-05T06:50:56.675Z,47.92
2018-07-05T06:51:56.642Z,48.02
2018-07-05T06:52:56.671Z,47.90
2018-07-05T06:53:56.609Z,47.09
2018-07-05T06:54:56.604Z,45.56
2018-07-05T06:55:56.623Z,45.32
2018-07-05T06:56:56.586Z,43.43
2018-07-05T06:57:56.571Z,43.02
2018-07-05T06:58:56.580Z,43.10
2018-07-05T06:59:56.550Z,42.49
2018-07-05T07:00:56.576Z,42.57
2018-07-05T07:01:56.541Z,40.00
2018-07-05T07:02:56.522Z,41.25
2018-07-05T07:03:56.517Z,39.86
2018-07-05T07:04:56.501Z,39.35
2018-07-05T07:05:56.517Z,39.06
2018-07-05T07:06:56.489Z,39.23
2018-07-05T07:07:56.475Z,39.43
2018-07-05T07:08:56.464Z,39.04
2018-07-05T07:09:56.464Z,39.02
2018-07-05T07:10:56.478Z,38.63
2018-07-05T07:11:56.428Z,38.73
2018-07-05T07:12:56.418Z,38.82
2018-07-05T07:13:56.468Z,38.84
2018-07-05T07:14:56.413Z,38.35
2018-07-05T07:15:56.490Z,38.94
2018-07-05T07:16:56.376Z,38.84
2018-07-05T07:17:56.381Z,40.03
2018-07-05T07:18:56.321Z,39.27
2018-07-05T07:19:56.348Z,39.66
2018-07-05T07:20:56.370Z,39.64
2018-07-05T07:21:56.348Z,38.43
2018-07-05T07:22:56.962Z,39.04
2018-07-05T07:23:56.308Z,39.54
2018-07-05T07:24:56.303Z,40.66
2018-07-05T07:25:56.298Z,41.19
2018-07-05T07:26:56.305Z,41.31
2018-07-05T07:27:56.272Z,41.02
2018-07-05T07:28:56.256Z,41.80
2018-07-05T07:29:56.211Z,42.19
2018-07-05T07:30:56.243Z,43.10
2018-07-05T07:31:56.319Z,42.63
2018-07-05T07:32:56.174Z,43.22
2018-07-05T07:33:56.207Z,43.12
2018-07-05T07:34:56.202Z,43.76
2018-07-05T07:35:56.202Z,43.32
2018-07-05T07:36:56.202Z,42.94
2018-07-05T07:37:56.216Z,43.16
2018-07-05T07:38:56.160Z,43.26
2018-07-05T07:39:56.144Z,43.43
2018-07-05T07:40:56.140Z,42.75
2018-07-05T07:41:56.148Z,43.43
2018-07-05T07:42:56.125Z,42.94
2018-07-05T07:43:56.101Z,41.00
2018-07-05T07:44:56.078Z,40.17
2018-07-05T07:45:56.044Z,39.94
2018-07-05T07:46:56.101Z,39.82
2018-07-05T07:47:56.069Z,39.14
2018-07-05T07:48:56.016Z,38.90
2018-07-05T07:49:56.049Z,37.41
2018-07-05T07:50:56.042Z,37.50
2018-07-05T07:51:56.066Z,37.38
2018-07-05T07:52:56.013Z,36.02
2018-07-05T07:53:56.131Z,37.75
2018-07-05T07:54:56.001Z,37.12
2018-07-05T07:55:55.982Z,37.73
2018-07-05T07:56:55.997Z,39.62
2018-07-05T07:57:55.918Z,39.25
2018-07-05T07:58:55.960Z,42.23
2018-07-05T07:59:55.969Z,41.68
2018-07-05T08:00:55.938Z,41.71
2018-07-05T08:01:55.951Z,42.47
2018-07-05T08:02:55.918Z,41.02
2018-07-05T08:03:55.857Z,41.71
2018-07-05T08:04:55.938Z,42.43
2018-07-05T08:05:56.594Z,42.41
2018-07-05T08:06:55.903Z,40.92
2018-07-05T08:07:55.933Z,40.95
2018-07-05T08:08:55.864Z,41.25
2018-07-05T08:09:55.863Z,42.21
2018-07-05T08:10:55.834Z,42.02
2018-07-05T08:11:55.843Z,38.65
2018-07-05T08:12:55.765Z,39.54
2018-07-05T08:13:55.799Z,39.56
2018-07-05T08:14:55.804Z,39.74
2018-07-05T08:15:55.774Z,39.25
2018-07-05T08:16:55.801Z,40.23
2018-07-05T08:17:55.758Z,40.76
2018-07-05T08:18:55.709Z,40.55
2018-07-05T08:19:55.739Z,40.16
2018-07-05T08:20:55.726Z,39.96
2018-07-05T08:21:55.738Z,42.25
2018-07-05T08:22:55.711Z,40.90
2018-07-05T08:23:55.695Z,41.09
2018-07-05T08:24:55.693Z,42.88
2018-07-05T08:25:56.569Z,41.71
2018-07-05T08:26:55.700Z,41.00
2018-07-05T08:27:55.669Z,41.58
2018-07-05T08:28:55.661Z,40.78
2018-07-05T08:29:55.633Z,40.68
2018-07-05T08:30:55.636Z,39.76
2018-07-05T08:31:55.583Z,39.86
2018-07-05T08:32:55.604Z,39.88
2018-07-05T08:33:55.588Z,40.58
2018-07-05T08:34:55.598Z,39.90
2018-07-05T08:35:55.570Z,40.61
2018-07-05T08:36:55.607Z,39.90
2018-07-05T08:37:55.616Z,39.72
2018-07-05T08:38:55.540Z,40.33
2018-07-05T08:39:55.547Z,40.82
2018-07-05T08:40:55.481Z,40.94
2018-07-05T08:41:55.536Z,42.71
2018-07-05T08:42:55.510Z,41.14
2018-07-05T08:43:55.492Z,42.92
2018-07-05T08:44:55.505Z,42.04
2018-07-05T08:45:55.468Z,40.86
2018-07-05T08:46:55.635Z,41.86
2018-07-05T08:47:55.454Z,43.46
2018-07-05T08:48:55.457Z,42.77
2018-07-05T08:49:55.398Z,42.96
2018-07-05T08:50:55.433Z,43.68
2018-07-05T08:51:55.448Z,43.20
2018-07-05T08:52:55.405Z,43.60
2018-07-05T08:53:55.401Z,43.50
2018-07-05T08:54:55.380Z,43.30
2018-07-05T08:55:55.381Z,43.79
2018-07-05T08:56:55.390Z,42.61
2018-07-05T08:57:55.348Z,42.32
2018-07-05T08:58:55.341Z,42.61
2018-07-05T08:59:55.327Z,45.76
2018-07-05T09:00:55.317Z,43.03
2018-07-05T09:01:55.304Z,43.44
2018-07-05T09:02:55.335Z,43.93
2018-07-05T09:03:55.288Z,44.25
2018-07-05T09:04:55.286Z,43.48
2018-07-05T09:05:55.229Z,43.86
2018-07-05T09:06:55.211Z,44.65
2018-07-05T09:07:55.276Z,44.45
2018-07-05T09:08:55.240Z,43.17
2018-07-05T09:09:55.239Z,43.17
2018-07-05T09:10:55.213Z,47.11
2018-07-05T09:11:55.241Z,43.54
2018-07-05T09:12:55.217Z,43.05
2018-07-05T09:13:55.185Z,42.65
2018-07-05T09:14:55.180Z,42.26
2018-07-05T09:15:55.159Z,45.09
2018-07-05T09:16:55.153Z,42.73
2018-07-05T09:17:55.300Z,42.83
2018-07-05T09:18:55.085Z,43.34
2018-07-05T09:19:55.119Z,43.05
2018-07-05T09:20:55.120Z,45.31
2018-07-05T09:21:55.110Z,42.85
2018-07-05T09:22:55.121Z,43.56
2018-07-05T09:23:55.093Z,43.34
2018-07-05T09:24:55.040Z,42.95
2018-07-05T09:25:55.077Z,42.76
2018-07-05T09:26:55.052Z,43.15
2018-07-05T09:27:55.996Z,42.76
2018-07-05T09:28:55.027Z,42.95
2018-07-05T09:29:55.100Z,43.15
2018-07-05T09:30:55.015Z,45.19
2018-07-05T09:31:54.995Z,42.16
2018-07-05T09:32:55.005Z,43.64
2018-07-05T09:33:54.969Z,43.34
2018-07-05T09:34:54.969Z,43.05
2018-07-05T09:35:54.951Z,42.76
2018-07-05T09:36:54.945Z,43.84
2018-07-05T09:37:54.961Z,43.96
2018-07-05T09:38:54.925Z,43.17
2018-07-05T09:39:54.921Z,43.54
2018-07-05T09:40:54.905Z,45.71
2018-07-05T09:41:54.893Z,45.71
2018-07-05T09:42:55.049Z,43.27
2018-07-05T09:43:54.876Z,44.33
2018-07-05T09:44:54.858Z,43.46
2018-07-05T09:45:54.853Z,45.14
2018-07-05T09:46:54.851Z,44.15
2018-07-05T09:47:54.855Z,43.76
2018-07-05T09:48:54.825Z,43.56
2018-07-05T09:49:54.819Z,44.33
2018-07-05T09:50:54.808Z,43.44
2018-07-05T09:51:54.739Z,43.24
2018-07-05T09:52:54.802Z,43.66
2018-07-05T09:53:54.774Z,44.74
2018-07-05T09:54:54.723Z,45.24
2018-07-05T09:55:54.748Z,43.27
2018-07-05T09:56:54.733Z,43.66
2018-07-05T09:57:54.750Z,44.84
2018-07-05T09:58:54.676Z,44.84
2018-07-05T09:59:54.701Z,45.53
2018-07-05T10:00:54.704Z,45.85
2018-07-05T10:01:54.698Z,45.16
2018-07-05T10:02:54.700Z,45.34
2018-07-05T10:03:54.668Z,45.04
2018-07-05T10:04:54.655Z,45.41
2018-07-05T10:05:54.642Z,44.53
2018-07-05T10:06:54.637Z,43.32
2018-07-05T10:07:54.655Z,44.21
2018-07-05T10:08:54.607Z,45.00
2018-07-05T10:09:54.600Z,43.42
2018-07-05T10:10:54.592Z,43.54
2018-07-05T10:11:54.576Z,43.93
2018-07-05T10:12:54.689Z,45.00
2018-07-05T10:13:54.745Z,45.59
2018-07-05T10:14:54.548Z,47.06
2018-07-05T10:15:54.546Z,45.61
2018-07-05T10:16:54.525Z,44.33
2018-07-05T10:17:54.517Z,43.71
2018-07-05T10:18:54.549Z,43.52
2018-07-05T10:19:54.491Z,43.99
2018-07-05T10:20:54.488Z,43.79
2018-07-05T10:21:54.477Z,42.89
2018-07-05T10:22:54.582Z,43.68
2018-07-05T10:23:54.477Z,43.28
2018-07-05T10:24:54.450Z,42.40
2018-07-05T10:25:54.441Z,42.99
2018-07-05T10:26:54.464Z,42.79
2018-07-05T10:27:54.411Z,42.81
2018-07-05T10:28:54.421Z,42.61
2018-07-05T10:29:54.386Z,43.01
2018-07-05T10:30:54.390Z,43.70
2018-07-05T10:31:54.374Z,42.22
2018-07-05T10:32:54.383Z,43.23
2018-07-05T10:33:54.370Z,44.53
2018-07-05T10:34:54.337Z,42.95
2018-07-05T10:35:54.330Z,43.03
2018-07-05T10:36:54.279Z,42.81
2018-07-05T10:37:54.259Z,42.59
2018-07-05T10:38:54.488Z,42.59
2018-07-05T10:39:54.283Z,43.06
2018-07-05T10:40:54.275Z,42.89
2018-07-05T10:41:54.265Z,43.28
2018-07-05T10:42:54.255Z,43.28
2018-07-05T10:43:54.278Z,42.61
2018-07-05T10:44:54.236Z,43.70
2018-07-05T10:45:54.193Z,43.60
2018-07-05T10:46:54.211Z,43.10
2018-07-05T10:47:54.203Z,42.63
2018-07-05T10:48:54.213Z,42.81
2018-07-05T10:49:54.186Z,42.44
2018-07-05T10:50:54.179Z,42.83
2018-07-05T10:51:54.145Z,42.63
2018-07-05T10:52:54.153Z,42.73
2018-07-05T10:53:54.174Z,42.44
2018-07-05T10:54:54.160Z,41.85
2018-07-05T10:55:54.131Z,42.14
2018-07-05T10:56:54.120Z,43.01
2018-07-05T10:57:54.057Z,44.11
2018-07-05T10:58:54.109Z,43.64
2018-07-05T10:59:54.078Z,44.03
2018-07-05T11:00:54.029Z,42.63
2018-07-05T11:01:54.063Z,42.63
2018-07-05T11:02:54.048Z,42.22
2018-07-05T11:03:54.039Z,43.20
2018-07-05T11:04:54.032Z,41.31
2018-07-05T11:05:54.031Z,40.72
2018-07-05T11:06:54.019Z,40.70
2018-07-05T11:07:54.013Z,41.29
2018-07-05T11:08:54.011Z,40.69
2018-07-05T11:09:53.984Z,40.78
2018-07-05T11:10:53.972Z,39.21
2018-07-05T11:11:54.597Z,39.50
2018-07-05T11:12:54.137Z,39.80
2018-07-05T11:13:54.150Z,39.70
2018-07-05T11:14:54.043Z,40.47
2018-07-05T11:15:53.934Z,39.90
2018-07-05T11:16:54.026Z,40.69
2018-07-05T11:17:54.040Z,39.50
2018-07-05T11:18:54.055Z,39.80
2018-07-05T11:19:53.993Z,40.11
2018-07-05T11:20:53.991Z,42.38
2018-07-05T11:21:53.874Z,40.21
2018-07-05T11:22:53.840Z,40.80
2018-07-05T11:23:53.860Z,42.47
2018-07-05T11:24:53.818Z,42.77
2018-07-05T11:25:53.813Z,42.18
2018-07-05T11:26:53.800Z,42.75
2018-07-05T11:27:53.799Z,42.06
2018-07-05T11:28:53.819Z,40.39
2018-07-05T11:29:53.776Z,40.88
2018-07-05T11:30:53.762Z,42.55
2018-07-05T11:31:53.748Z,42.55
2018-07-05T11:32:53.749Z,41.27
2018-07-05T11:33:53.735Z,41.00
2018-07-05T11:34:53.883Z,41.09
2018-07-05T11:35:53.707Z,42.49
2018-07-05T11:36:53.706Z,41.39
2018-07-05T11:37:53.689Z,41.22
2018-07-05T11:38:54.539Z,43.16
2018-07-05T11:39:53.699Z,40.92
2018-07-05T11:40:53.654Z,42.81
2018-07-05T11:41:53.641Z,43.50
2018-07-05T11:42:53.649Z,42.61
2018-07-05T11:43:53.632Z,42.71
2018-07-05T11:44:53.669Z,42.81
2018-07-05T11:45:53.609Z,42.91
2018-07-05T11:46:53.665Z,43.10
2018-07-05T11:47:53.598Z,43.62
2018-07-05T11:48:53.582Z,43.62
2018-07-05T11:49:53.588Z,43.52
2018-07-05T11:50:53.515Z,43.13
2018-07-05T11:51:53.554Z,45.61
2018-07-05T11:52:53.540Z,43.34
2018-07-05T11:53:53.566Z,44.84
2018-07-05T11:54:53.597Z,44.57
2018-07-05T11:55:53.464Z,45.53
2018-07-05T11:56:53.498Z,45.83
2018-07-05T11:57:53.483Z,45.73
2018-07-05T11:58:53.584Z,45.53
2018-07-05T11:59:53.480Z,45.63
2018-07-05T12:00:53.445Z,45.12
2018-07-05T12:01:53.440Z,45.21
2018-07-05T12:02:53.459Z,44.43
2018-07-05T12:03:53.377Z,45.90
2018-07-05T12:04:53.395Z,46.00
2018-07-05T12:05:53.354Z,45.51
2018-07-05T12:06:53.385Z,45.81
2018-07-05T12:07:53.369Z,45.83
2018-07-05T12:08:53.362Z,46.64
2018-07-05T12:09:53.376Z,48.04
2018-07-05T12:10:53.340Z,46.56
2018-07-05T12:11:53.333Z,48.86
2018-07-05T12:12:53.331Z,46.47
2018-07-05T12:13:53.313Z,46.98
2018-07-05T12:14:53.411Z,48.16
2018-07-05T12:15:53.301Z,46.78
2018-07-05T12:16:53.243Z,47.18
2018-07-05T12:17:53.270Z,46.88
2018-07-05T12:18:53.254Z,47.18
2018-07-05T12:19:53.272Z,47.77
2018-07-05T12:20:53.256Z,46.98
2018-07-05T12:21:53.226Z,47.18
2018-07-05T12:22:53.169Z,46.98
2018-07-05T12:23:53.243Z,46.98
2018-07-05T12:24:53.218Z,45.40
2018-07-05T12:25:53.183Z,46.22
2018-07-05T12:26:53.174Z,45.82
2018-07-05T12:27:53.165Z,45.60
2018-07-05T12:28:53.147Z,45.10
2018-07-05T12:29:53.147Z,47.08
2018-07-05T12:30:53.138Z,45.79
2018-07-05T12:31:53.125Z,45.79
2018-07-05T12:32:53.114Z,44.91
2018-07-05T12:33:53.101Z,45.60
2018-07-05T12:34:53.091Z,45.30
2018-07-05T12:35:53.105Z,45.92
2018-07-05T12:36:53.065Z,44.12
2018-07-05T12:37:53.050Z,45.13
2018-07-05T12:38:53.067Z,43.73
2018-07-05T12:39:53.029Z,43.52
2018-07-05T12:40:53.051Z,43.62
2018-07-05T12:41:53.016Z,43.60
2018-07-05T12:42:53.000Z,43.51
2018-07-05T12:43:52.988Z,43.11
2018-07-05T12:44:52.984Z,43.31
2018-07-05T12:45:53.002Z,43.80
2018-07-05T12:46:52.961Z,43.31
2018-07-05T12:47:52.950Z,44.39
2018-07-05T12:48:52.950Z,43.29
2018-07-05T12:49:52.880Z,43.29
2018-07-05T12:50:52.937Z,43.27
2018-07-05T12:51:53.055Z,42.60
2018-07-05T12:52:52.892Z,43.29